createdAt,value
2024-04-18T00:00:17.411Z,20.00
2024-04-18T00:03:18.886Z,19.10
2024-04-18T00:06:20.389Z,19.90
2024-04-18T00:09:21.821Z,19.50
2024-04-18T00:12:23.276Z,21.40
2024-04-18T00:15:25.107Z,22.10
2024-04-18T00:18:26.693Z,25.90
2024-04-18T00:24:29.633Z,27.60
2024-04-18T00:30:32.623Z,25.10
2024-04-18T00:33:34.191Z,27.60
2024-04-18T00:36:35.820Z,31.90
2024-04-18T00:39:37.329Z,32.60
2024-04-18T00:42:39.397Z,32.70
2024-04-18T00:45:41.034Z,32.00
2024-04-18T00:48:42.600Z,30.90
2024-04-18T00:51:44.631Z,33.00
2024-04-18T00:54:47.385Z,30.30
2024-04-18T00:57:49.197Z,30.30
2024-04-18T01:00:51.278Z,32.60
2024-04-18T01:03:52.945Z,31.90
2024-04-18T01:09:55.810Z,30.80
2024-04-18T01:12:57.973Z,29.90
2024-04-18T01:15:59.352Z,26.60
2024-04-18T01:19:00.861Z,25.50
2024-04-18T01:22:05.070Z,25.10
2024-04-18T01:25:07.431Z,23.70
2024-04-18T01:28:08.925Z,24.00
2024-04-18T01:31:10.368Z,24.50
2024-04-18T01:34:12.222Z,28.00
2024-04-18T01:37:13.879Z,30.20
2024-04-18T01:43:16.704Z,31.30
2024-04-18T01:46:20.223Z,31.50
2024-04-18T01:49:21.669Z,28.70
2024-04-18T01:52:23.066Z,31.50
2024-04-18T01:55:24.490Z,31.60
2024-04-18T01:58:25.907Z,36.40
2024-04-18T02:01:27.330Z,44.60
2024-04-18T02:04:28.919Z,44.60
2024-04-18T02:07:30.403Z,42.80
2024-04-18T02:10:31.817Z,43.60
2024-04-18T02:13:33.783Z,43.80
2024-04-18T02:16:35.312Z,42.10
2024-04-18T02:19:36.729Z,40.30
2024-04-18T02:22:38.199Z,41.20
2024-04-18T02:25:39.769Z,36.20
2024-04-18T02:28:41.598Z,34.20
2024-04-18T02:31:42.993Z,32.40
2024-04-18T02:34:44.406Z,29.70
2024-04-18T02:37:45.780Z,29.10
2024-04-18T02:40:47.258Z,30.00
2024-04-18T02:43:52.985Z,31.90
2024-04-18T02:46:54.558Z,33.90
2024-04-18T02:49:55.944Z,33.60
2024-04-18T02:52:57.326Z,31.20
2024-04-18T02:55:58.671Z,30.90
2024-04-18T02:59:00.085Z,29.00
2024-04-18T03:02:01.469Z,30.80
2024-04-18T03:05:02.973Z,30.70
2024-04-18T03:08:04.806Z,29.10
2024-04-18T03:14:07.576Z,33.60
2024-04-18T03:17:09.895Z,34.60
2024-04-18T03:20:11.301Z,28.50
2024-04-18T03:23:12.840Z,30.10
2024-04-18T03:26:14.446Z,32.80
2024-04-18T03:29:16.239Z,26.90
2024-04-18T03:35:18.938Z,25.00
2024-04-18T03:38:20.272Z,25.10
2024-04-18T03:41:21.795Z,26.00
2024-04-18T03:47:24.823Z,33.50
2024-04-18T03:50:26.267Z,32.40
2024-04-18T03:53:27.732Z,30.50
2024-04-18T03:56:29.130Z,34.70
2024-04-18T03:59:33.386Z,34.40
2024-04-18T04:02:34.834Z,36.40
2024-04-18T04:05:36.338Z,32.00
2024-04-18T04:08:38.457Z,30.40
2024-04-18T04:11:39.852Z,32.30
2024-04-18T04:14:41.291Z,29.80
2024-04-18T04:17:45.422Z,30.40
2024-04-18T04:20:46.926Z,31.50
2024-04-18T04:23:48.599Z,38.60
2024-04-18T04:26:51.180Z,41.30
2024-04-18T04:29:52.597Z,37.80
2024-04-18T04:32:54.075Z,38.20
2024-04-18T04:35:56.130Z,39.50
2024-04-18T04:38:57.508Z,34.60
2024-04-18T04:41:59.114Z,30.90
2024-04-18T04:45:00.502Z,33.90
2024-04-18T04:48:01.958Z,36.90
2024-04-18T04:51:03.449Z,40.20
2024-04-18T04:54:05.176Z,38.80
2024-04-18T05:00:08.524Z,36.50
2024-04-18T05:03:10.246Z,31.70
2024-04-18T05:09:16.658Z,32.30
2024-04-18T05:12:18.142Z,45.70
2024-04-18T05:15:20.100Z,51.00
2024-04-18T05:18:21.525Z,45.70
2024-04-18T05:21:23.054Z,47.00
2024-04-18T05:24:24.559Z,41.10
2024-04-18T05:27:26.044Z,38.20
2024-04-18T05:30:27.582Z,35.80
2024-04-18T05:33:29.251Z,32.60
2024-04-18T05:39:32.001Z,27.10
2024-04-18T05:42:33.767Z,28.10
2024-04-18T05:45:35.392Z,27.20
2024-04-18T05:48:36.852Z,25.50
2024-04-18T05:51:38.295Z,23.70
2024-04-18T05:54:39.855Z,23.80
2024-04-18T06:00:43.777Z,22.10
2024-04-18T06:03:45.292Z,22.00
2024-04-18T06:09:48.300Z,20.50
2024-04-18T06:12:49.865Z,18.90
2024-04-18T06:15:52.283Z,19.90
2024-04-18T06:18:55.878Z,19.70
2024-04-18T06:21:57.417Z,19.60
2024-04-18T06:24:58.907Z,18.60
2024-04-18T06:28:00.528Z,18.00
2024-04-18T06:31:02.147Z,16.70
2024-04-18T06:34:03.780Z,16.70
2024-04-18T06:37:08.008Z,16.90
2024-04-18T06:40:10.006Z,14.90
2024-04-18T06:43:11.545Z,16.30
2024-04-18T06:46:12.873Z,14.80
2024-04-18T06:52:15.698Z,11.40
2024-04-18T06:55:17.094Z,10.30
2024-04-18T06:58:18.503Z,11.40
2024-04-18T07:01:19.938Z,12.30
2024-04-18T07:04:21.404Z,12.30
2024-04-18T07:07:22.872Z,11.50
2024-04-18T07:10:24.314Z,11.10
2024-04-18T07:13:25.747Z,11.50
2024-04-18T07:16:27.188Z,8.80
2024-04-18T07:19:28.655Z,8.40
2024-04-18T07:22:30.695Z,11.80
2024-04-18T07:25:32.606Z,10.20
2024-04-18T07:28:42.556Z,9.90
2024-04-18T07:31:44.087Z,11.00
2024-04-18T07:34:45.512Z,9.40
2024-04-18T07:37:47.043Z,10.90
2024-04-18T07:40:48.419Z,10.00
2024-04-18T07:43:50.457Z,10.00
2024-04-18T07:46:56.492Z,10.30
2024-04-18T07:49:57.987Z,9.40
2024-04-18T07:53:07.646Z,8.20
2024-04-18T07:56:11.594Z,8.40
2024-04-18T07:59:14.101Z,7.80
2024-04-18T08:02:18.343Z,8.70
2024-04-18T08:05:22.509Z,9.20
2024-04-18T08:08:28.874Z,9.20
2024-04-18T08:12:04.122Z,10.00
2024-04-18T08:14:55.907Z,9.10
2024-04-18T08:17:59.934Z,8.20
2024-04-18T08:21:01.524Z,8.40
2024-04-18T08:24:04.498Z,8.70
2024-04-18T08:27:07.219Z,7.90
2024-04-18T08:30:09.339Z,7.10
2024-04-18T08:33:12.409Z,6.80
2024-04-18T08:36:13.891Z,7.40
2024-04-18T08:39:15.840Z,6.30
2024-04-18T08:42:22.807Z,6.40
2024-04-18T08:45:26.787Z,5.70
2024-04-18T08:48:30.540Z,5.40
2024-04-18T08:51:34.581Z,5.60
2024-04-18T08:54:38.583Z,6.50
2024-04-18T08:58:02.906Z,5.70
2024-04-18T09:01:15.021Z,5.30
2024-04-18T09:04:18.618Z,5.00
2024-04-18T09:07:28.670Z,4.40
2024-04-18T09:10:30.841Z,4.10
2024-04-18T09:13:32.324Z,4.00
2024-04-18T09:16:34.011Z,3.90
2024-04-18T09:19:35.528Z,4.50
2024-04-18T09:22:36.956Z,3.00
2024-04-18T09:25:45.840Z,2.80
2024-04-18T09:28:50.870Z,3.30
2024-04-18T09:32:26.838Z,3.00
2024-04-18T09:35:31.620Z,3.20
2024-04-18T09:42:01.790Z,3.10
2024-04-18T09:45:08.062Z,3.00
2024-04-18T09:48:16.878Z,2.90
2024-04-18T09:51:21.783Z,3.10
2024-04-18T09:54:24.034Z,3.00
2024-04-18T09:57:29.185Z,3.10
2024-04-18T10:00:37.326Z,3.20
2024-04-18T10:03:39.599Z,3.20
2024-04-18T10:06:42.501Z,3.20
2024-04-18T10:09:49.710Z,3.00
2024-04-18T10:13:12.122Z,2.80
2024-04-18T10:16:14.814Z,2.90
2024-04-18T10:19:24.023Z,2.80
2024-04-18T10:22:45.226Z,2.90
2024-04-18T10:25:49.175Z,3.10
2024-04-18T10:28:50.919Z,3.20
2024-04-18T10:31:53.573Z,3.30
2024-04-18T10:35:00.800Z,3.40
2024-04-18T10:38:02.380Z,3.30
2024-04-18T10:41:04.830Z,3.50
2024-04-18T10:44:09.095Z,3.70
2024-04-18T10:47:10.611Z,3.90
2024-04-18T10:50:19.144Z,4.20
2024-04-18T10:56:24.761Z,3.60
2024-04-18T10:59:26.259Z,3.70
2024-04-18T11:02:33.984Z,5.10
2024-04-18T11:05:35.742Z,3.90
2024-04-18T11:08:37.266Z,3.40
2024-04-18T11:11:38.767Z,3.50
2024-04-18T11:14:40.442Z,3.60
2024-04-18T11:17:42.132Z,3.80
2024-04-18T11:20:46.405Z,4.40
2024-04-18T11:23:59.312Z,4.20
2024-04-18T11:27:03.990Z,4.50
2024-04-18T11:30:06.460Z,4.60
2024-04-18T11:33:11.142Z,5.30
2024-04-18T11:36:14.660Z,5.50
2024-04-18T11:39:16.117Z,4.90
2024-04-18T11:42:17.592Z,4.70
2024-04-18T11:45:19.097Z,4.30
2024-04-18T11:48:39.887Z,4.60
2024-04-18T11:51:42.733Z,4.40
2024-04-18T11:54:44.102Z,4.50
2024-04-18T12:01:11.250Z,4.50
2024-04-18T12:04:12.840Z,4.40
2024-04-18T12:07:14.286Z,4.50
2024-04-18T12:10:15.760Z,4.40
2024-04-18T12:13:18.377Z,4.40
2024-04-18T12:16:19.830Z,4.40
2024-04-18T12:19:23.630Z,4.70
2024-04-18T12:22:25.027Z,4.90
2024-04-18T12:25:26.507Z,4.60
2024-04-18T12:28:30.426Z,4.60
2024-04-18T12:31:34.623Z,4.60
2024-04-18T12:34:38.866Z,4.40
2024-04-18T12:37:50.868Z,4.10
2024-04-18T12:40:52.247Z,3.80
2024-04-18T12:43:55.007Z,4.10
2024-04-18T12:46:56.464Z,4.60
2024-04-18T12:49:57.933Z,3.90
2024-04-18T12:52:59.316Z,4.40
2024-04-18T12:56:00.782Z,3.10
2024-04-18T12:59:02.428Z,3.30
2024-04-18T13:02:04.056Z,3.30
2024-04-18T13:05:05.601Z,3.70
2024-04-18T13:08:17.277Z,4.10
2024-04-18T13:11:33.010Z,3.50
2024-04-18T13:14:34.437Z,3.60
2024-04-18T13:17:35.965Z,3.40
2024-04-18T13:20:37.797Z,3.30
2024-04-18T13:23:39.556Z,3.40
2024-04-18T13:26:41.030Z,3.40
2024-04-18T13:29:42.441Z,3.70
2024-04-18T13:32:43.930Z,3.60
2024-04-18T13:35:47.257Z,3.70
2024-04-18T13:38:49.576Z,3.70
2024-04-18T13:41:52.256Z,3.60
2024-04-18T13:44:54.563Z,3.80
2024-04-18T13:48:03.453Z,3.90
2024-04-18T13:51:05.151Z,3.80
2024-04-18T13:54:06.694Z,3.60
2024-04-18T13:57:08.221Z,3.90
2024-04-18T14:00:10.324Z,3.50
2024-04-18T14:03:11.972Z,3.20
2024-04-18T14:06:13.512Z,3.40
2024-04-18T14:09:15.034Z,3.70
2024-04-18T14:12:16.582Z,3.80
2024-04-18T14:15:20.093Z,4.00
2024-04-18T14:18:21.629Z,4.00
2024-04-18T14:21:23.136Z,3.80
2024-04-18T14:24:24.819Z,3.70
2024-04-18T14:27:27.499Z,3.20
2024-04-18T14:30:30.386Z,3.40
2024-04-18T14:33:31.848Z,3.30
2024-04-18T14:36:33.333Z,3.60
2024-04-18T14:39:34.732Z,3.60
2024-04-18T14:42:36.251Z,3.40
2024-04-18T14:45:37.915Z,3.80
2024-04-18T14:48:47.649Z,3.60
2024-04-18T14:51:53.511Z,3.40
2024-04-18T14:54:57.609Z,3.30
2024-04-18T14:58:04.836Z,3.40
2024-04-18T15:01:06.261Z,3.50
2024-04-18T15:04:10.383Z,3.70
2024-04-18T15:07:11.846Z,3.70
2024-04-18T15:16:18.719Z,4.10
2024-04-18T15:19:20.376Z,4.20
2024-04-18T15:22:21.908Z,4.70
2024-04-18T15:25:41.108Z,4.00
2024-04-18T15:28:46.944Z,3.80
2024-04-18T15:31:48.856Z,5.00
2024-04-18T15:34:50.887Z,4.10
2024-04-18T15:37:54.540Z,4.30
2024-04-18T15:40:57.886Z,4.20
2024-04-18T15:44:02.344Z,4.10
2024-04-18T15:47:03.956Z,4.70
2024-04-18T15:50:05.790Z,4.50
2024-04-18T15:53:07.852Z,4.60
2024-04-18T15:56:09.425Z,4.40
2024-04-18T15:59:10.980Z,4.10
2024-04-18T16:02:12.647Z,4.30
2024-04-18T16:05:14.164Z,4.50
2024-04-18T16:08:15.919Z,4.50
2024-04-18T16:11:17.634Z,5.00
2024-04-18T16:14:25.101Z,4.40
2024-04-18T16:17:26.502Z,4.70
2024-04-18T16:23:29.462Z,5.00
2024-04-18T16:29:32.179Z,4.10
2024-04-18T16:35:38.163Z,4.10
2024-04-18T16:38:39.851Z,4.20
2024-04-18T16:41:41.776Z,4.70
2024-04-18T16:44:43.382Z,4.40
2024-04-18T16:47:44.854Z,5.10
2024-04-18T16:53:51.517Z,7.20
2024-04-18T16:56:52.934Z,6.60
2024-04-18T16:59:54.265Z,5.50
2024-04-18T17:02:55.700Z,4.30
2024-04-18T17:09:07.095Z,4.80
2024-04-18T17:12:08.780Z,4.90
2024-04-18T17:15:10.190Z,4.80
2024-04-18T17:18:18.768Z,5.80
2024-04-18T17:21:20.326Z,6.10
2024-04-18T17:27:23.118Z,5.70
2024-04-18T17:33:26.119Z,6.70
2024-04-18T17:39:29.015Z,7.20
2024-04-18T17:42:30.485Z,8.90
2024-04-18T17:45:31.906Z,9.50
2024-04-18T17:48:33.735Z,8.20
2024-04-18T17:51:35.296Z,8.30
2024-04-18T17:57:38.143Z,8.50
2024-04-18T18:00:39.750Z,9.40
2024-04-18T18:03:41.250Z,10.30
2024-04-18T18:09:44.386Z,8.10
2024-04-18T18:12:46.018Z,8.50
2024-04-18T18:18:49.099Z,7.80
2024-04-18T18:22:00.988Z,8.80
2024-04-18T18:25:06.712Z,9.60
2024-04-18T18:28:08.086Z,10.10
2024-04-18T18:31:09.448Z,10.10
2024-04-18T18:34:16.094Z,10.80
2024-04-18T18:37:17.579Z,11.00
2024-04-18T18:40:19.015Z,12.10
2024-04-18T18:43:20.454Z,13.20
2024-04-18T18:46:21.787Z,14.20
2024-04-18T18:49:23.289Z,14.10
2024-04-18T18:55:28.764Z,16.00
2024-04-18T18:58:43.952Z,15.70
2024-04-18T19:01:51.953Z,16.60
2024-04-18T19:04:53.492Z,17.00
2024-04-18T19:10:56.657Z,16.30
2024-04-18T19:13:58.407Z,16.40
2024-04-18T19:20:01.645Z,19.80
2024-04-18T19:23:05.057Z,23.60
2024-04-18T19:26:06.736Z,24.50
2024-04-18T19:32:09.494Z,23.70
2024-04-18T19:35:13.695Z,23.00
2024-04-18T19:38:16.940Z,21.20
2024-04-18T19:41:18.503Z,18.80
2024-04-18T19:44:19.858Z,19.90
2024-04-18T19:47:24.761Z,18.90
2024-04-18T19:50:27.134Z,16.30
2024-04-18T19:53:28.553Z,15.70
2024-04-18T19:56:30.076Z,16.50
2024-04-18T19:59:31.611Z,15.50
2024-04-18T20:02:33.016Z,14.50
2024-04-18T20:05:35.468Z,14.30
2024-04-18T20:08:36.818Z,13.40
2024-04-18T20:11:38.274Z,13.80
2024-04-18T20:14:39.677Z,14.40
2024-04-18T20:17:41.213Z,13.40
2024-04-18T20:20:42.809Z,14.80
2024-04-18T20:23:44.295Z,15.00
2024-04-18T20:26:45.622Z,15.90
2024-04-18T20:29:47.365Z,16.70
2024-04-18T20:32:48.930Z,19.10
2024-04-18T20:35:50.351Z,18.30
2024-04-18T20:38:51.725Z,20.40
2024-04-18T20:41:53.128Z,19.00
2024-04-18T20:44:54.546Z,19.20
2024-04-18T20:47:55.981Z,17.80
2024-04-18T20:50:57.354Z,20.20
2024-04-18T20:53:58.726Z,18.00
2024-04-18T20:57:00.060Z,15.40
2024-04-18T21:00:01.547Z,14.00
2024-04-18T21:03:03.105Z,11.70
2024-04-18T21:09:06.165Z,10.60
2024-04-18T21:12:07.832Z,10.20
2024-04-18T21:18:10.967Z,10.60
2024-04-18T21:21:12.438Z,10.10
2024-04-18T21:24:14.119Z,10.20
2024-04-18T21:30:17.227Z,8.60
2024-04-18T21:33:18.816Z,8.90
2024-04-18T21:36:20.535Z,8.70
2024-04-18T21:42:23.635Z,10.20
2024-04-18T21:45:25.198Z,11.90
2024-04-18T21:48:27.227Z,13.70
2024-04-18T21:51:29.255Z,14.70
2024-04-18T21:57:32.266Z,12.30
2024-04-18T22:03:35.836Z,11.30
2024-04-18T22:06:37.481Z,11.70
2024-04-18T22:12:40.474Z,10.00
2024-04-18T22:15:42.036Z,9.70
2024-04-18T22:18:43.694Z,10.20
2024-04-18T22:24:46.785Z,9.50
2024-04-18T22:27:48.322Z,9.70
2024-04-18T22:31:00.036Z,10.30
2024-04-18T22:37:03.067Z,10.90
2024-04-18T22:40:05.060Z,11.00
2024-04-18T22:43:06.501Z,11.70
2024-04-18T22:46:08.027Z,12.30
2024-04-18T22:49:09.564Z,12.30
2024-04-18T22:52:11.010Z,12.50
2024-04-18T22:55:12.499Z,14.10
2024-04-18T22:58:14.002Z,15.90
2024-04-18T23:01:15.652Z,16.20
2024-04-18T23:04:17.359Z,15.80
2024-04-18T23:07:18.915Z,18.40
2024-04-18T23:10:20.447Z,18.10
2024-04-18T23:13:21.887Z,18.50
2024-04-18T23:16:23.657Z,21.00
2024-04-18T23:19:25.170Z,21.80
2024-04-18T23:22:26.770Z,23.50
2024-04-18T23:25:28.473Z,25.10
2024-04-18T23:28:29.933Z,24.10
2024-04-18T23:31:31.373Z,23.60
2024-04-18T23:34:32.976Z,24.10
2024-04-18T23:37:34.498Z,25.70
2024-04-18T23:40:36.002Z,24.20
2024-04-18T23:43:37.537Z,25.60
2024-04-18T23:46:40.522Z,25.70
2024-04-18T23:49:41.959Z,25.40
2024-04-18T23:53:02.504Z,26.80
2024-04-18T23:56:22.869Z,25.30
